Terminal Aerodrome Forecast
Issued by NWS

Home | Current Version | Previous Version | Text Only | Print | Product List | Glossary On
Versions: 1 2 3 4 5 6 7 8 9 10 11 12 13 14 15 16 17 18 19 20 21 22 23 24 25 26 27 28 29 30 31 32 33 34 35 36 37 38 39 40 41 42
000
FTUS41 KBOX 272335
TAFBAF
TAF
KBAF 272335Z 2800/2824 33007KT P6SM OVC050
     FM280500 35006KT P6SM OVC035
     FM280900 36007KT P6SM -SHSN OVC025
     FM281100 36008KT 3SM -SHSN OVC020
     FM281200 35008KT 2SM -SHSN BR OVC020
     FM281400 36008KT 3SM -SHSN OVC020
     FM281700 35008KT P6SM OVC020
     FM281800 35008KT P6SM OVC025=

USA.gov is the U.S. government's official web portal to all federal, state and local government web resources and services.